Flight Track Log - Related Links

Times and Time Zones

All times are in EDT time to prevent confusion due to time zone crossing. See the UAL4407 flight status page for this flight to view local times or setup timezone preferences in your user account.

Time Position Orientation Groundspeed Altitude Reporting Facility
EDT Latitude Longitude Course Direction KTS MPH feet Rate Location/Type
Mon 06:17:09 AM 42.9667 -71.4000 276° West 174 200 1,900  Level KA90
Mon 06:18:15 AM 43.0333 -71.3833 10° North 211 243 4,600 2,338 Climbing KA90
Mon 06:19:25 AM 43.0692 -71.4511 306° West 228 262 7,200 2,030 Climbing Boston Center
Mon 06:20:00 AM 42.9775 -71.8861 280° West  Level FlightAware Approximate
Mon 06:20:28 AM 43.1094 -71.5272 306° West 244 281 9,100  Level Boston Center
Mon 06:21:00 AM 43.0010 -71.9963 276° West  Level FlightAware Approximate
Mon 06:21:25 AM 43.1433 -71.6092 300° West 255 293 11,200  Level Boston Center
Mon 06:22:00 AM 43.0099 -72.1115 276° West  Level FlightAware Approximate
Mon 06:22:27 AM 43.1339 -71.7175 263° West 255 293 12,400  Level Boston Center
Mon 06:23:25 AM 43.1117 -71.8372 256° West 307 353 13,700 1,373 Climbing Boston Center
Mon 06:24:25 AM 43.0892 -71.9539 255° West 325 374 15,100 1,200 Climbing Boston Center
Mon 06:25:25 AM 43.0667 -72.0819 257° West 337 388 16,100 500 Climbing Boston Center
Mon 06:26:25 AM 43.0483 -72.1958 258° West 342 394 16,100  Level Boston Center
Mon 06:27:25 AM 43.0236 -72.3378 257° West 342 394 16,100  Level Boston Center
Mon 06:28:27 AM 43.0028 -72.4628 257° West 342 394 16,100  Level Boston Center
Mon 06:29:27 AM 42.9775 -72.5906 255° West 342 394 16,100 -51 Level Boston Center
Mon 06:30:25 AM 42.9544 -72.7181 256° West 342 394 16,000 -50 Descending Boston Center
Mon 06:31:26 AM 42.9333 -72.8428 257° West 342 394 16,000  Level Boston Center
Mon 06:32:25 AM 42.9097 -72.9672 256° West 342 394 16,000 50 Level Boston Center
Mon 06:33:25 AM 42.8864 -73.0747 254° West 342 394 16,100  Climbing Boston Center
Mon 06:34:28 AM 42.8606 -73.2133 256° West 336 387 16,000  Descending Boston Center
Mon 06:35:27 AM 42.8367 -73.3347 255° West 336 387 16,100 51 Climbing Boston Center
Mon 06:36:25 AM 42.8147 -73.4589 256° West 336 387 16,100 -50 Level Boston Center
Mon 06:37:26 AM 42.7906 -73.5803 255° West 336 387 16,000  Descending Boston Center
Mon 06:38:25 AM 42.7664 -73.7042 255° West 336 387 16,100  Climbing Boston Center
Mon 06:39:27 AM 42.7192 -73.8192 241° Southwest 335 386 16,000 -49 Descending Boston Center
Mon 06:40:27 AM 42.6164 -73.8706 200° South 344 396 16,000 51 Level Boston Center
Mon 06:41:25 AM 42.5117 -73.9103 196° South 367 422 16,100 50 Climbing Boston Center
Mon 06:42:26 AM 42.4194 -73.9503 198° South 390 449 16,100  Level Boston Center
Mon 06:43:26 AM 42.3064 -74.0008 198° South 390 449 16,100  Level Boston Center
Mon 06:44:26 AM 42.2161 -74.0408 198° South 390 449 16,100 -50 Level Boston Center
Mon 06:45:25 AM 42.1028 -74.0911 198° South 390 449 16,000 -50 Descending Boston Center
Mon 06:46:26 AM 42.0000 -74.1358 198° South 390 449 16,000 -541 Level Boston Center
Mon 06:47:27 AM 41.8972 -74.1806 198° South 390 449 14,900 -1,230 Descending Boston Center
Mon 06:48:28 AM 41.7944 -74.2278 199° South 390 449 13,500 -1,400 Descending Boston Center
Mon 06:49:27 AM 41.6958 -74.2694 198° South 378 435 12,100 -1,385 Descending Boston Center
Mon 06:50:25 AM 41.6139 -74.3033 197° South 358 412 10,800 -1,664 Descending Boston Center
Mon 06:51:26 AM 41.5278 -74.3422 199° South 326 375 8,800 -1,404 Descending Boston Center
Mon 06:53:33 AM 41.3667 -74.4000 195° South 261 300 6,400 -866 Descending New York TRACON
Mon 06:54:33 AM 41.3000 -74.4333 201° Southwest 257 296 6,100 -150 Descending New York TRACON
Mon 06:55:33 AM 41.2333 -74.4667 201° Southwest 250 288 6,100 -50 Level New York TRACON
Mon 06:56:33 AM 41.1667 -74.5000 201° Southwest 255 293 6,000  Descending New York TRACON
Mon 06:57:33 AM 41.1000 -74.5167 191° South 258 297 6,100 53 Climbing New York TRACON
Mon 06:58:27 AM 41.0500 -74.5500 207° Southwest 259 298 6,100  Level New York TRACON
Mon 06:59:27 AM 40.9667 -74.5667 189° South 258 297 6,100  Level New York TRACON
Mon 07:00:21 AM 40.9167 -74.5667 180° South 255 293 6,100 -50 Level New York TRACON
Mon 07:01:27 AM 40.8333 -74.5667 180° South 263 303 6,000  Descending New York TRACON
Mon 07:02:21 AM 40.7667 -74.5500 169° South 262 302 6,100  Climbing New York TRACON
Mon 07:03:21 AM 40.7000 -74.5333 169° South 260 299 6,000 -368 Descending New York TRACON
Mon 07:04:15 AM 40.6333 -74.5000 159° South 273 314 5,400 -579 Descending New York TRACON
Mon 07:05:15 AM 40.5833 -74.4333 135° Southeast 262 302 4,900 -737 Descending New York TRACON
Mon 07:06:09 AM 40.5333 -74.3833 143° Southeast 254 292 4,000 -1,000 Descending New York TRACON
Mon 07:07:03 AM 40.5167 -74.3167 108° East 240 276 3,100 -1,000 Descending New York TRACON

Login

Don't have an account? Register now (free) for customized features, flight alerts, and more!